Terminal Aerodrome Forecast
Issued by NWS

Home | Current Version | Previous Version | Text Only | Print | Product List | Glossary On
Versions: 1 2 3 4 5 6 7 8 9 10 11 12 13 14 15 16 17 18 19 20
000
FTUS41 KILN 231736
TAFLCK
TAF
KLCK 231736Z 2318/2418 22008KT P6SM OVC022
     FM232200 21006KT P6SM VCSH BKN035
     FM240200 17005KT P6SM BKN035
     FM241300 18010KT P6SM BKN070
     FM241500 19014G22KT P6SM BKN035=

USA.gov is the U.S. government's official web portal to all federal, state and local government web resources and services.